LCPH

Paphos International Airport

Paphos, Cyprus
TAF LCPH 181730Z 1818/1918 29010KT 9999 FEW018 BECMG 1819/1823 35007KT PROB40 1818/1906 BKN008 BECMG 1908/1911 28012KT
Issued Valid From Valid To
Jul-18 @ 17:30 UTC
(5 hours ago)
Jul-18 @ 18:00 UTC
(5 hours ago)
Jul-19 @ 18:00 UTC
(in 19 hours)
Expired Click to View Jul-18 @ 18:00 to Jul-18 @ 19:00
TAF LCPH 181730Z 1818/1918 29010KT 9999 FEW018
Wind Visibility Clouds
290° at 10 knots 10,000+ meters
  • Few at 1,800' AGL
Probable  (Probability 40%) Jul-18 @ 18:00 to Jul-19 @ 06:00
PROB40 1818/1906 BKN008
Clouds
  • Broken at 800' AGL
Becoming Jul-18 @ 19:00 to Jul-19 @ 08:00
BECMG 1819/1823 35007KT
Wind Visibility Clouds
350° at 7 knots 10,000+ meters
  • Few at 1,800' AGL
Becoming Jul-19 @ 08:00 to Jul-19 @ 18:00
BECMG 1908/1911 28012KT
Wind Visibility Clouds
280° at 12 knots 10,000+ meters
  • Few at 1,800' AGL
TAF LCPH 181730Z 1818/1918 29010KT 9999 FEW018 BECMG 1819/1823 35007KT PROB40 1818/1906 BKN008 BECMG 1908/1911 28012KT
Issued Jul-18 @ 17:30 UTC
(5 hours ago)
Valid From Jul-18 @ 18:00 UTC
(5 hours ago)
Valid To Jul-19 @ 18:00 UTC
(in 19 hours)
Jul-18 @ 18:00 - Jul-18 @ 19:00
Wind Visibility
290° at 10 knots 10,000+ meters
Clouds
  • Few at 1,800' AGL
Probability 40% Probable Jul-18 @ 18:00 - Jul-19 @ 06:00
Clouds
  • Broken at 800' AGL
Becoming Jul-18 @ 19:00 - Jul-19 @ 08:00
Wind Visibility
350° at 7 knots 10,000+ meters
Clouds
  • Few at 1,800' AGL
Becoming Jul-19 @ 08:00 - Jul-19 @ 18:00
Wind Visibility
280° at 12 knots 10,000+ meters
Clouds
  • Few at 1,800' AGL